Time;durP1;ratioP1;P1;durP2;ratioP2;P2;SDS_P1;SDS_P2;PMS_P1;PMS_P2;Temp;Humidity;BMP_temperature;BMP_pressure;BME280_temperature;BME280_humidity;BME280_pressure;Samples;Min_cycle;Max_cycle;Signal;HPM_P1;HPM_P2
2021/12/19 00:00:25;;;;;;;32.58;17.48;;;;;;;;;;5078048;28;20226;-81
2021/12/19 00:10:57;;;;;;;31.40;14.77;;;;;;;;;;5078212;28;20073;-81
2021/12/19 00:13:25;;;;;;;26.75;15.05;;;;;;;;;;5078825;28;20020;-80
2021/12/19 00:15:52;;;;;;;25.23;15.02;;;;;;;;;;5060319;28;20521;-81
2021/12/19 00:18:18;;;;;;;25.27;12.77;;;;;;;;;;5061461;28;20025;-81
2021/12/19 00:20:44;;;;;;;16.95;10.63;;;;;;;;;;5079245;28;20028;-80
2021/12/19 00:23:10;;;;;;;28.35;12.35;;;;;;;;;;5078591;28;20021;-81
2021/12/19 00:25:37;;;;;;;21.15;11.15;;;;;;;;;;5077933;28;20154;-81
2021/12/19 00:28:03;;;;;;;22.27;10.68;;;;;;;;;;5060303;28;20017;-80
2021/12/19 00:30:29;;;;;;;22.60;12.00;;;;;;;;;;5060710;28;20126;-80
2021/12/19 00:32:55;;;;;;;19.95;11.02;;;;;;;;;;5061215;28;20434;-81
2021/12/19 00:35:22;;;;;;;22.05;11.05;;;;;;;;;;5060528;28;20064;-81
2021/12/19 00:37:48;;;;;;;47.22;23.02;;;;;;;;;;5060253;28;20023;-80
2021/12/19 00:40:14;;;;;;;25.58;13.52;;;;;;;;;;5061082;28;20021;-81
2021/12/19 00:42:42;;;;;;;21.88;12.60;;;;;;;;;;5078277;28;20021;-81
2021/12/19 00:45:42;;;;;;;18.40;8.98;;;;;;;;;;5079047;28;20074;-81
2021/12/19 00:48:03;;;;;;;17.15;8.82;;;;;;;;;;5058147;28;20388;-81
2021/12/19 00:50:30;;;;;;;19.23;9.65;;;;;;;;;;5078790;28;20074;-81
2021/12/19 00:52:56;;;;;;;19.85;10.20;;;;;;;;;;5060346;28;20385;-81
2021/12/19 00:55:23;;;;;;;29.88;11.80;;;;;;;;;;5171404;22;20040;-77
2021/12/19 00:57:50;;;;;;;29.17;11.43;;;;;;;;;;5059526;28;20475;-78
2021/12/19 01:00:17;;;;;;;27.95;14.88;;;;;;;;;;5080562;28;20103;-78
2021/12/19 01:02:44;;;;;;;35.78;19.45;;;;;;;;;;5063947;28;20338;-78
2021/12/19 01:05:10;;;;;;;46.60;25.45;;;;;;;;;;5047072;28;20318;-78
2021/12/19 01:07:37;;;;;;;39.33;19.13;;;;;;;;;;5082297;28;20449;-78
2021/12/19 01:10:07;;;;;;;40.50;23.08;;;;;;;;;;5046580;28;20027;-77
2021/12/19 01:12:36;;;;;;;31.83;13.63;;;;;;;;;;5046398;28;20020;-77
2021/12/19 01:15:04;;;;;;;23.92;13.77;;;;;;;;;;5080641;28;20028;-77
2021/12/19 01:17:30;;;;;;;21.77;11.93;;;;;;;;;;5046177;28;20051;-78
2021/12/19 01:19:56;;;;;;;33.22;20.33;;;;;;;;;;5063250;28;20043;-78
2021/12/19 01:22:22;;;;;;;44.00;18.63;;;;;;;;;;5070574;22;20033;-78
2021/12/19 01:24:48;;;;;;;30.80;14.40;;;;;;;;;;5062515;28;20027;-77
2021/12/19 01:27:14;;;;;;;28.30;14.90;;;;;;;;;;5063608;28;20024;-78
2021/12/19 01:29:40;;;;;;;27.67;13.13;;;;;;;;;;5080579;28;20012;-78
2021/12/19 01:32:07;;;;;;;29.50;13.02;;;;;;;;;;5080395;28;20020;-78
2021/12/19 01:34:33;;;;;;;29.58;12.27;;;;;;;;;;5062790;28;20036;-78
2021/12/19 01:36:59;;;;;;;19.65;10.07;;;;;;;;;;5045610;28;20024;-78
2021/12/19 01:39:25;;;;;;;28.20;11.35;;;;;;;;;;5079691;28;20525;-77
2021/12/19 01:41:53;;;;;;;28.88;12.85;;;;;;;;;;5062598;28;20027;-77
2021/12/19 01:44:20;;;;;;;29.92;14.25;;;;;;;;;;5062150;28;20430;-78
2021/12/19 01:46:47;;;;;;;22.58;12.45;;;;;;;;;;5045003;28;20418;-78
2021/12/19 01:49:14;;;;;;;29.35;13.38;;;;;;;;;;5064529;28;20066;-79
2021/12/19 01:51:40;;;;;;;30.58;16.70;;;;;;;;;;5061895;28;20019;-78
2021/12/19 01:54:08;;;;;;;35.40;16.92;;;;;;;;;;5063093;28;20434;-78
2021/12/19 01:56:35;;;;;;;38.08;16.80;;;;;;;;;;5047562;28;20142;-79
2021/12/19 01:59:03;;;;;;;42.95;25.65;;;;;;;;;;5046343;28;20082;-79
2021/12/19 02:01:30;;;;;;;40.95;21.13;;;;;;;;;;5062442;28;20074;-78
2021/12/19 02:03:56;;;;;;;37.17;17.90;;;;;;;;;;5064209;28;20445;-78
2021/12/19 02:06:23;;;;;;;40.85;20.88;;;;;;;;;;5062022;28;20035;-78
2021/12/19 02:08:53;;;;;;;43.08;20.52;;;;;;;;;;5062513;28;20048;-78
2021/12/19 02:11:19;;;;;;;35.72;17.63;;;;;;;;;;5061281;28;20074;-79
2021/12/19 02:13:46;;;;;;;35.42;17.33;;;;;;;;;;5082404;28;20307;-79
2021/12/19 02:16:14;;;;;;;30.92;14.02;;;;;;;;;;5052188;22;20177;-78
2021/12/19 02:18:41;;;;;;;35.88;13.75;;;;;;;;;;5080154;28;20315;-78
2021/12/19 02:21:07;;;;;;;27.83;14.18;;;;;;;;;;5044927;28;20028;-78
2021/12/19 02:23:33;;;;;;;31.10;15.07;;;;;;;;;;5069580;22;20093;-78
2021/12/19 02:25:59;;;;;;;37.88;17.25;;;;;;;;;;5069187;22;20454;-78
2021/12/19 02:28:26;;;;;;;43.58;23.00;;;;;;;;;;5062239;28;20342;-78
2021/12/19 02:30:52;;;;;;;57.00;27.15;;;;;;;;;;5045905;28;20373;-78
2021/12/19 02:33:22;;;;;;;47.90;25.60;;;;;;;;;;5086963;22;20060;-78
2021/12/19 02:36:04;;;;;;;53.78;23.92;;;;;;;;;;5079294;28;20115;-78
2021/12/19 02:49:23;;;;;;;43.78;22.65;;;;;;;;;;5060501;28;20039;-78
2021/12/19 02:51:51;;;;;;;43.00;22.25;;;;;;;;;;5044531;28;20021;-78
2021/12/19 02:54:19;;;;;;;40.00;21.17;;;;;;;;;;5045250;28;20040;-79
2021/12/19 02:56:46;;;;;;;53.78;24.80;;;;;;;;;;5044533;28;20020;-79
2021/12/19 02:59:12;;;;;;;48.05;23.67;;;;;;;;;;5079422;28;20111;-78
2021/12/19 03:01:41;;;;;;;51.03;23.63;;;;;;;;;;5044498;28;20016;-78
2021/12/19 03:04:07;;;;;;;51.25;26.55;;;;;;;;;;5060936;28;20036;-78
2021/12/19 03:06:34;;;;;;;57.13;24.98;;;;;;;;;;5079725;28;20021;-79
2021/12/19 03:09:05;;;;;;;55.90;23.35;;;;;;;;;;5062648;28;20031;-78
2021/12/19 03:19:36;;;;;;;38.15;21.58;;;;;;;;;;5078064;28;20020;-78
2021/12/19 03:22:03;;;;;;;37.60;20.77;;;;;;;;;;5044018;28;20111;-77
2021/12/19 03:24:29;;;;;;;28.23;17.13;;;;;;;;;;5043973;28;20020;-78
2021/12/19 03:26:56;;;;;;;31.73;14.38;;;;;;;;;;5060898;28;20395;-78
2021/12/19 03:29:22;;;;;;;32.58;13.00;;;;;;;;;;5061469;28;20094;-77
2021/12/19 03:31:49;;;;;;;25.80;12.57;;;;;;;;;;5043189;28;20452;-78
2021/12/19 03:34:16;;;;;;;31.80;12.88;;;;;;;;;;5043986;28;20044;-78
2021/12/19 03:36:43;;;;;;;23.90;13.00;;;;;;;;;;5060058;28;20024;-77
2021/12/19 03:39:24;;;;;;;37.00;15.43;;;;;;;;;;5060066;28;20031;-77
2021/12/19 03:41:50;;;;;;;35.40;13.88;;;;;;;;;;5059805;28;20021;-77
2021/12/19 03:44:18;;;;;;;27.02;12.70;;;;;;;;;;5059592;28;20119;-78
2021/12/19 03:46:44;;;;;;;36.47;14.30;;;;;;;;;;5059686;28;20099;-77
2021/12/19 03:49:11;;;;;;;33.83;14.82;;;;;;;;;;5043922;28;20023;-77
2021/12/19 03:51:37;;;;;;;21.60;10.38;;;;;;;;;;5043302;28;20113;-77
2021/12/19 03:54:03;;;;;;;31.45;12.75;;;;;;;;;;5064804;23;20087;-77
2021/12/19 03:56:30;;;;;;;22.83;9.38;;;;;;;;;;5043280;28;20043;-78
2021/12/19 03:58:57;;;;;;;30.95;9.20;;;;;;;;;;5078633;22;20101;-77
2021/12/19 04:01:24;;;;;;;18.08;8.70;;;;;;;;;;5042987;28;20020;-75
2021/12/19 04:03:51;;;;;;;29.60;9.75;;;;;;;;;;5059309;28;20276;-75
2021/12/19 04:06:17;;;;;;;15.40;6.72;;;;;;;;;;5042897;28;20074;-76
2021/12/19 04:08:44;;;;;;;15.32;6.05;;;;;;;;;;5042993;28;20021;-76
2021/12/19 04:11:11;;;;;;;18.63;8.80;;;;;;;;;;5059544;28;20027;-75
2021/12/19 04:13:42;;;;;;;26.40;7.20;;;;;;;;;;5043423;28;20021;-78
2021/12/19 04:16:08;;;;;;;22.25;6.85;;;;;;;;;;5043429;28;20123;-77
2021/12/19 04:18:35;;;;;;;25.20;8.95;;;;;;;;;;5060505;28;20017;-78
2021/12/19 04:21:07;;;;;;;22.50;8.35;;;;;;;;;;5060011;28;20074;-77
2021/12/19 04:23:34;;;;;;;29.55;8.68;;;;;;;;;;5051192;22;20017;-76
2021/12/19 04:26:02;;;;;;;21.75;9.27;;;;;;;;;;5057322;28;20033;-77
2021/12/19 04:28:30;;;;;;;14.50;7.03;;;;;;;;;;5087210;22;20496;-78
2021/12/19 04:30:58;;;;;;;29.60;10.38;;;;;;;;;;5059702;28;20028;-77
2021/12/19 04:33:27;;;;;;;21.20;8.70;;;;;;;;;;5077936;28;20024;-77
2021/12/19 04:35:59;;;;;;;29.00;9.65;;;;;;;;;;5080580;28;20441;-78
2021/12/19 04:41:22;;;;;;;56.65;10.23;;;;;;;;;;5080796;28;20023;-76
2021/12/19 04:52:20;;;;;;;25.23;6.60;;;;;;;;;;5063432;28;20371;-73
2021/12/19 05:00:16;;;;;;;19.35;6.78;;;;;;;;;;5067762;28;20040;-75
2021/12/19 05:02:50;;;;;;;25.98;6.53;;;;;;;;;;5062444;28;20024;-74
2021/12/19 05:05:58;;;;;;;16.40;7.38;;;;;;;;;;5062982;28;20020;-75
2021/12/19 05:16:26;;;;;;;30.73;7.60;;;;;;;;;;5061728;28;20024;-75
2021/12/19 05:18:54;;;;;;;18.23;6.22;;;;;;;;;;5061885;28;20257;-75
2021/12/19 05:21:26;;;;;;;21.90;6.45;;;;;;;;;;5045028;28;20422;-76
2021/12/19 05:24:18;;;;;;;15.25;4.97;;;;;;;;;;5062326;28;20066;-76
2021/12/19 05:26:44;;;;;;;20.23;6.10;;;;;;;;;;5062580;28;20016;-76
2021/12/19 05:29:15;;;;;;;14.50;5.25;;;;;;;;;;5053802;23;20040;-75
2021/12/19 05:31:42;;;;;;;11.98;5.40;;;;;;;;;;5052946;23;20438;-76
2021/12/19 05:34:09;;;;;;;23.95;7.30;;;;;;;;;;5062493;28;20032;-75
2021/12/19 05:47:25;;;;;;;10.25;4.95;;;;;;;;;;5059488;28;20052;-76
2021/12/19 05:49:52;;;;;;;10.98;3.70;;;;;;;;;;5062038;28;20016;-75
2021/12/19 05:52:19;;;;;;;16.65;5.80;;;;;;;;;;5045087;28;20030;-78
2021/12/19 05:54:49;;;;;;;;;;;;;;;;;;5046166;28;20032;-76
2021/12/19 05:57:15;;;;;;;13.82;5.72;;;;;;;;;;5080043;28;19911;-78
2021/12/19 05:59:45;;;;;;;12.27;4.53;;;;;;;;;;5045970;28;20291;-78
2021/12/19 06:02:12;;;;;;;10.95;4.50;;;;;;;;;;5044982;28;20158;-76
2021/12/19 06:04:40;;;;;;;25.55;6.28;;;;;;;;;;5062039;28;20046;-77
2021/12/19 06:07:07;;;;;;;16.42;6.75;;;;;;;;;;5062290;28;20020;-77
2021/12/19 06:09:34;;;;;;;36.78;8.63;;;;;;;;;;5045340;28;20024;-76
2021/12/19 06:12:00;;;;;;;32.75;5.97;;;;;;;;;;5044773;28;20426;-75
2021/12/19 06:14:32;;;;;;;19.33;5.97;;;;;;;;;;5078405;28;20119;-77
2021/12/19 06:17:00;;;;;;;10.57;5.47;;;;;;;;;;5045792;28;20016;-79
2021/12/19 06:19:28;;;;;;;25.60;6.70;;;;;;;;;;5044779;28;20024;-76
2021/12/19 06:21:54;;;;;;;13.35;5.15;;;;;;;;;;5061763;28;20024;-77
2021/12/19 06:24:20;;;;;;;23.70;5.72;;;;;;;;;;5079570;28;20021;-78
2021/12/19 06:26:46;;;;;;;12.13;4.43;;;;;;;;;;5078743;28;20016;-78
2021/12/19 06:29:13;;;;;;;14.48;6.88;;;;;;;;;;5078997;28;20319;-77
2021/12/19 06:31:39;;;;;;;15.77;4.57;;;;;;;;;;5061989;23;20044;-76
2021/12/19 06:34:06;;;;;;;20.50;4.95;;;;;;;;;;5060647;28;20103;-78
2021/12/19 06:36:33;;;;;;;13.07;5.85;;;;;;;;;;5061420;28;20410;-77
2021/12/19 06:39:00;;;;;;;22.45;6.72;;;;;;;;;;5044873;28;20048;-76
2021/12/19 06:41:28;;;;;;;10.40;4.53;;;;;;;;;;5044832;28;20025;-78
2021/12/19 06:43:55;;;;;;;11.88;4.20;;;;;;;;;;5044179;28;20027;-77
2021/12/19 06:46:21;;;;;;;14.27;4.47;;;;;;;;;;5060287;28;20082;-77
2021/12/19 06:48:53;;;;;;;18.25;5.63;;;;;;;;;;5044900;28;20025;-78
2021/12/19 06:51:22;;;;;;;9.93;4.70;;;;;;;;;;5044694;28;20025;-77
2021/12/19 06:53:50;;;;;;;8.13;4.22;;;;;;;;;;5061504;28;20377;-75
2021/12/19 06:56:17;;;;;;;15.68;5.68;;;;;;;;;;5060516;28;20020;-78
2021/12/19 06:58:44;;;;;;;17.35;5.43;;;;;;;;;;5060344;28;20307;-77
2021/12/19 07:01:14;;;;;;;19.30;5.53;;;;;;;;;;5061350;28;20016;-78
2021/12/19 07:03:44;;;;;;;19.77;4.13;;;;;;;;;;5044737;28;20017;-78
2021/12/19 07:06:11;;;;;;;10.60;4.70;;;;;;;;;;5044017;28;20029;-77
2021/12/19 07:08:39;;;;;;;11.85;3.75;;;;;;;;;;5044259;28;20024;-77
2021/12/19 07:11:06;;;;;;;10.43;4.05;;;;;;;;;;5059823;28;20021;-77
2021/12/19 07:13:33;;;;;;;11.55;4.53;;;;;;;;;;5059982;28;20027;-76
2021/12/19 07:16:00;;;;;;;12.73;4.38;;;;;;;;;;5044116;28;20055;-78
2021/12/19 07:18:30;;;;;;;10.40;4.00;;;;;;;;;;5044039;28;20024;-76
2021/12/19 07:20:58;;;;;;;16.48;5.75;;;;;;;;;;5044242;28;20402;-77
2021/12/19 07:23:30;;;;;;;10.93;5.00;;;;;;;;;;5060405;28;20024;-77
2021/12/19 07:25:57;;;;;;;12.50;4.03;;;;;;;;;;5027173;28;20426;-77
2021/12/19 07:28:24;;;;;;;8.32;3.60;;;;;;;;;;5059686;28;20024;-76
2021/12/19 07:30:51;;;;;;;17.10;6.55;;;;;;;;;;5059427;28;20021;-77
2021/12/19 07:33:20;;;;;;;16.60;5.13;;;;;;;;;;5043614;28;20028;-78
2021/12/19 07:35:53;;;;;;;14.93;5.10;;;;;;;;;;5043230;28;20040;-78
2021/12/19 07:38:37;;;;;;;12.45;6.13;;;;;;;;;;5059126;28;20012;-77
2021/12/19 07:41:08;;;;;;;10.98;4.82;;;;;;;;;;5043879;28;20311;-77
2021/12/19 07:43:36;;;;;;;14.50;4.03;;;;;;;;;;5043766;28;20115;-77
2021/12/19 07:46:03;;;;;;;12.75;5.65;;;;;;;;;;5043590;28;20031;-78
2021/12/19 07:48:33;;;;;;;13.48;3.58;;;;;;;;;;5044198;28;20035;-78
2021/12/19 07:51:02;;;;;;;17.23;4.88;;;;;;;;;;5077604;28;20020;-79
2021/12/19 07:53:31;;;;;;;13.68;6.60;;;;;;;;;;5044030;28;20055;-77
2021/12/19 07:55:59;;;;;;;10.70;4.43;;;;;;;;;;5067694;22;20053;-77
2021/12/19 07:58:47;;;;;;;13.27;6.07;;;;;;;;;;5086040;22;20075;-78
2021/12/19 08:01:15;;;;;;;12.52;4.95;;;;;;;;;;5044051;28;20059;-79
2021/12/19 08:03:44;;;;;;;21.92;5.28;;;;;;;;;;5043728;28;20048;-79
2021/12/19 08:06:13;;;;;;;10.00;4.82;;;;;;;;;;5043326;28;20062;-79
2021/12/19 08:08:46;;;;;;;11.70;4.75;;;;;;;;;;5059748;28;20024;-78
2021/12/19 08:14:00;;;;;;;11.73;5.05;;;;;;;;;;5058121;28;20024;-77
2021/12/19 08:16:26;;;;;;;14.27;3.92;;;;;;;;;;5043474;28;20303;-79
2021/12/19 08:18:53;;;;;;;17.67;4.63;;;;;;;;;;5046135;28;20020;-77
2021/12/19 08:21:21;;;;;;;13.52;3.90;;;;;;;;;;5059288;28;20044;-78
2021/12/19 08:23:52;;;;;;;14.95;3.65;;;;;;;;;;5043440;28;20023;-79
2021/12/19 08:26:25;;;;;;;11.52;4.63;;;;;;;;;;5042165;28;20057;-78
2021/12/19 08:28:52;;;;;;;15.18;3.80;;;;;;;;;;5042917;28;20371;-78
2021/12/19 08:31:19;;;;;;;8.85;3.53;;;;;;;;;;5077747;28;20379;-78
2021/12/19 08:33:46;;;;;;;13.52;4.40;;;;;;;;;;5059150;28;20024;-78
2021/12/19 08:36:14;;;;;;;14.18;4.55;;;;;;;;;;5043108;28;20040;-77
2021/12/19 08:38:41;;;;;;;12.07;3.95;;;;;;;;;;5059887;28;20056;-76
2021/12/19 08:41:07;;;;;;;12.50;4.15;;;;;;;;;;5043261;28;20017;-77
2021/12/19 08:43:33;;;;;;;6.53;3.38;;;;;;;;;;5059324;28;20541;-77
2021/12/19 08:46:01;;;;;;;12.35;3.17;;;;;;;;;;5042492;28;20025;-77
2021/12/19 08:48:30;;;;;;;;;;;;;;;;;;5059498;28;20020;-78
2021/12/19 08:50:57;;;;;;;13.98;4.20;;;;;;;;;;5059161;28;19905;-78
2021/12/19 08:53:25;;;;;;;14.57;6.53;;;;;;;;;;5042169;28;20418;-77
2021/12/19 08:55:51;;;;;;;22.55;9.75;;;;;;;;;;5084594;22;20086;-77
2021/12/19 08:58:17;;;;;;;22.25;11.27;;;;;;;;;;5059722;28;20326;-77
2021/12/19 09:00:44;;;;;;;40.15;12.90;;;;;;;;;;5077113;28;20051;-76
2021/12/19 09:03:11;;;;;;;21.52;10.98;;;;;;;;;;5058978;28;20422;-77
2021/12/19 09:05:37;;;;;;;21.42;10.20;;;;;;;;;;5042579;28;20077;-77
2021/12/19 09:08:04;;;;;;;20.35;9.57;;;;;;;;;;5076614;28;20013;-76
2021/12/19 09:10:30;;;;;;;25.52;10.48;;;;;;;;;;5059292;28;20048;-77
2021/12/19 09:12:57;;;;;;;19.05;9.45;;;;;;;;;;5058729;28;20062;-77
2021/12/19 09:15:24;;;;;;;27.55;10.88;;;;;;;;;;5059036;28;20349;-77
2021/12/19 09:17:50;;;;;;;35.35;11.60;;;;;;;;;;5076752;28;20036;-77
2021/12/19 09:20:17;;;;;;;35.13;12.52;;;;;;;;;;5059736;28;20123;-77
2021/12/19 09:22:43;;;;;;;24.00;11.80;;;;;;;;;;5046761;28;20322;-78
2021/12/19 09:25:10;;;;;;;27.77;12.40;;;;;;;;;;5063631;28;20020;-78
2021/12/19 09:27:36;;;;;;;36.22;13.27;;;;;;;;;;5046348;28;20425;-78
2021/12/19 09:30:04;;;;;;;35.92;11.25;;;;;;;;;;5045387;28;20029;-77
2021/12/19 09:32:30;;;;;;;37.92;13.73;;;;;;;;;;5069781;22;20047;-78
2021/12/19 09:34:56;;;;;;;27.10;11.10;;;;;;;;;;5047913;28;20032;-78
2021/12/19 09:37:23;;;;;;;22.23;12.85;;;;;;;;;;5030062;28;20082;-78
2021/12/19 09:39:52;;;;;;;37.45;14.55;;;;;;;;;;5046407;28;20020;-78
2021/12/19 09:42:21;;;;;;;26.83;11.95;;;;;;;;;;5062944;28;20055;-77
2021/12/19 09:44:48;;;;;;;28.80;12.15;;;;;;;;;;5030076;28;20380;-78
2021/12/19 09:47:14;;;;;;;39.22;17.38;;;;;;;;;;5046760;28;20021;-78
2021/12/19 09:49:41;;;;;;;34.63;17.52;;;;;;;;;;5063017;28;20096;-78
2021/12/19 09:52:10;;;;;;;35.72;16.50;;;;;;;;;;5045540;28;20023;-77
2021/12/19 09:54:39;;;;;;;34.25;16.27;;;;;;;;;;5045190;28;20038;-77
2021/12/19 09:57:05;;;;;;;37.10;17.40;;;;;;;;;;5062424;28;20017;-77
2021/12/19 09:59:32;;;;;;;39.85;19.50;;;;;;;;;;5061142;28;20017;-77
2021/12/19 10:01:59;;;;;;;40.53;18.20;;;;;;;;;;5061545;28;20028;-77
2021/12/19 10:04:34;;;;;;;50.72;19.92;;;;;;;;;;5052751;22;20068;-77
2021/12/19 10:07:03;;;;;;;41.20;20.00;;;;;;;;;;5046074;28;20465;-78
2021/12/19 10:09:29;;;;;;;38.75;18.50;;;;;;;;;;5052183;22;20032;-78
2021/12/19 10:12:10;;;;;;;43.33;17.95;;;;;;;;;;5061585;28;20021;-78
2021/12/19 10:14:37;;;;;;;44.60;20.20;;;;;;;;;;5044703;28;20032;-77
2021/12/19 10:17:05;;;;;;;63.05;23.30;;;;;;;;;;5046363;28;20017;-77
2021/12/19 10:19:48;;;;;;;86.80;25.52;;;;;;;;;;5062739;28;20020;-77
2021/12/19 10:22:26;;;;;;;47.47;21.23;;;;;;;;;;5061371;28;20407;-78
2021/12/19 10:24:54;;;;;;;41.63;18.95;;;;;;;;;;5044894;28;20027;-78
2021/12/19 10:27:43;;;;;;;38.28;17.67;;;;;;;;;;5045880;28;20026;-78
2021/12/19 10:30:20;;;;;;;34.65;14.98;;;;;;;;;;5044367;28;20017;-79
2021/12/19 10:32:51;;;;;;;37.38;15.20;;;;;;;;;;5062122;28;20025;-78
2021/12/19 10:35:21;;;;;;;33.50;11.48;;;;;;;;;;5044471;28;20509;-78
2021/12/19 10:37:47;;;;;;;44.25;17.33;;;;;;;;;;5044644;28;20035;-77
2021/12/19 10:40:14;;;;;;;40.60;18.80;;;;;;;;;;5060840;28;20031;-78
2021/12/19 10:42:45;;;;;;;50.72;22.52;;;;;;;;;;5044532;28;20119;-78
2021/12/19 10:45:34;;;;;;;50.92;24.80;;;;;;;;;;5044894;28;20021;-78
2021/12/19 10:48:18;;;;;;;42.47;22.83;;;;;;;;;;5044641;28;20333;-78
2021/12/19 10:50:46;;;;;;;67.10;33.10;;;;;;;;;;5044515;28;20016;-80
2021/12/19 10:53:15;;;;;;;81.32;33.10;;;;;;;;;;5043779;28;20028;-78
2021/12/19 10:55:45;;;;;;;130.05;66.78;;;;;;;;;;5060386;28;20087;-78
2021/12/19 10:58:28;;;;;;;148.52;76.07;;;;;;;;;;5044437;28;20330;-78
2021/12/19 11:01:03;;;;;;;172.88;85.90;;;;;;;;;;5098979;22;20040;-79
2021/12/19 11:03:46;;;;;;;147.73;71.38;;;;;;;;;;5059494;28;20036;-78
2021/12/19 11:06:23;;;;;;;153.15;73.50;;;;;;;;;;5084793;22;20074;-77
2021/12/19 11:08:51;;;;;;;155.95;72.97;;;;;;;;;;5044005;28;20319;-78
2021/12/19 11:11:36;;;;;;;165.02;71.60;;;;;;;;;;5060565;28;20048;-78
2021/12/19 11:14:03;;;;;;;173.18;83.53;;;;;;;;;;5043148;28;20025;-77
2021/12/19 11:16:30;;;;;;;201.93;98.15;;;;;;;;;;5043876;28;20032;-77
2021/12/19 11:18:57;;;;;;;215.23;100.25;;;;;;;;;;5043963;28;20073;-77
2021/12/19 11:21:24;;;;;;;336.75;162.65;;;;;;;;;;5043777;28;20032;-77
2021/12/19 11:23:50;;;;;;;325.33;171.85;;;;;;;;;;5060015;28;20025;-77
2021/12/19 11:26:20;;;;;;;259.77;134.95;;;;;;;;;;5043161;28;20036;-77
2021/12/19 11:28:47;;;;;;;303.75;162.30;;;;;;;;;;5027189;28;20025;-78
2021/12/19 11:31:13;;;;;;;296.20;159.85;;;;;;;;;;5059092;28;20023;-78
2021/12/19 11:33:56;;;;;;;302.15;163.70;;;;;;;;;;5077310;28;20334;-77
2021/12/19 11:36:23;;;;;;;315.00;164.73;;;;;;;;;;5077047;28;20055;-78
2021/12/19 11:38:50;;;;;;;222.45;114.38;;;;;;;;;;5059687;28;20311;-78
2021/12/19 11:41:16;;;;;;;247.43;126.63;;;;;;;;;;5043430;28;20016;-78
2021/12/19 11:43:45;;;;;;;283.15;133.15;;;;;;;;;;5077575;28;20315;-78
2021/12/19 11:46:21;;;;;;;303.17;146.52;;;;;;;;;;5059943;28;20028;-77
2021/12/19 11:49:07;;;;;;;283.25;145.05;;;;;;;;;;5059387;28;20017;-77
2021/12/19 11:51:33;;;;;;;374.13;186.60;;;;;;;;;;5059656;28;20078;-78
2021/12/19 11:54:11;;;;;;;351.58;178.77;;;;;;;;;;5043471;28;20020;-79
2021/12/19 11:56:37;;;;;;;333.92;169.98;;;;;;;;;;5059869;28;20029;-79
2021/12/19 11:59:16;;;;;;;369.88;196.13;;;;;;;;;;5042624;28;20342;-78
2021/12/19 12:01:43;;;;;;;368.52;190.98;;;;;;;;;;5078244;28;20042;-78
2021/12/19 12:04:14;;;;;;;467.70;256.10;;;;;;;;;;5044635;28;20031;-79
2021/12/19 12:06:54;;;;;;;608.30;350.92;;;;;;;;;;5043979;28;20032;-79
2021/12/19 12:09:34;;;;;;;628.67;368.77;;;;;;;;;;5043971;28;20043;-78
2021/12/19 12:12:04;;;;;;;565.95;338.60;;;;;;;;;;5059093;28;20016;-78
2021/12/19 12:14:35;;;;;;;489.23;247.98;;;;;;;;;;5042596;28;20110;-77
2021/12/19 12:17:08;;;;;;;448.40;246.15;;;;;;;;;;5076890;28;20074;-78
2021/12/19 12:19:49;;;;;;;497.70;270.10;;;;;;;;;;5059788;28;20024;-77
2021/12/19 12:22:32;;;;;;;358.95;182.75;;;;;;;;;;5042579;28;20017;-77
2021/12/19 12:25:10;;;;;;;328.17;159.93;;;;;;;;;;5043067;28;20029;-78
2021/12/19 12:27:42;;;;;;;417.52;213.43;;;;;;;;;;5077434;28;20376;-78
2021/12/19 12:30:17;;;;;;;577.42;372.40;;;;;;;;;;5060823;28;20040;-79
2021/12/19 12:32:45;;;;;;;439.98;248.60;;;;;;;;;;5043101;28;20017;-78
2021/12/19 12:35:12;;;;;;;425.45;221.43;;;;;;;;;;5042798;28;20342;-77
2021/12/19 12:37:40;;;;;;;340.52;171.77;;;;;;;;;;5042472;28;20017;-77
2021/12/19 12:40:19;;;;;;;298.60;154.45;;;;;;;;;;5043642;28;20021;-77
2021/12/19 12:42:57;;;;;;;340.35;178.27;;;;;;;;;;5078453;28;20048;-78
2021/12/19 12:45:24;;;;;;;250.00;119.95;;;;;;;;;;5078236;28;20166;-78
2021/12/19 12:47:50;;;;;;;216.10;102.43;;;;;;;;;;5042026;28;20031;-77
2021/12/19 12:50:17;;;;;;;150.95;72.18;;;;;;;;;;5041840;28;20063;-77
2021/12/19 12:52:43;;;;;;;111.22;55.30;;;;;;;;;;5058769;28;20031;-78
2021/12/19 12:55:13;;;;;;;116.13;49.13;;;;;;;;;;5059009;28;20043;-77
2021/12/19 12:57:41;;;;;;;134.90;52.88;;;;;;;;;;5063467;28;20326;-77
2021/12/19 13:00:16;;;;;;;176.80;73.15;;;;;;;;;;5046963;28;20029;-77
2021/12/19 13:02:44;;;;;;;212.80;86.22;;;;;;;;;;5063368;28;20040;-77
2021/12/19 13:05:11;;;;;;;212.82;98.70;;;;;;;;;;5046373;28;20031;-78
2021/12/19 13:07:38;;;;;;;196.57;89.75;;;;;;;;;;5045821;28;20031;-78
2021/12/19 13:10:06;;;;;;;190.93;90.68;;;;;;;;;;5062454;28;20013;-77
2021/12/19 13:12:36;;;;;;;202.68;91.50;;;;;;;;;;5045689;28;20020;-77
2021/12/19 13:15:10;;;;;;;218.15;103.00;;;;;;;;;;5045872;28;20036;-77
2021/12/19 13:17:37;;;;;;;319.88;162.60;;;;;;;;;;5062529;28;20414;-77
2021/12/19 13:20:03;;;;;;;281.98;168.43;;;;;;;;;;5045988;28;20020;-77
2021/12/19 13:22:32;;;;;;;314.85;173.77;;;;;;;;;;5046095;28;20020;-78
2021/12/19 13:25:06;;;;;;;342.73;176.45;;;;;;;;;;5046762;28;20424;-78
2021/12/19 13:27:33;;;;;;;322.00;178.40;;;;;;;;;;5045710;28;20074;-77
2021/12/19 13:30:09;;;;;;;327.92;185.45;;;;;;;;;;5046319;28;20415;-77
2021/12/19 13:32:55;;;;;;;299.88;157.80;;;;;;;;;;5046778;28;20078;-78
2021/12/19 13:35:36;;;;;;;315.13;161.18;;;;;;;;;;5045965;28;20426;-77
2021/12/19 13:38:07;;;;;;;281.35;145.20;;;;;;;;;;5046486;28;20039;-77
2021/12/19 13:40:48;;;;;;;333.42;156.35;;;;;;;;;;5062308;28;20024;-77
2021/12/19 13:43:19;;;;;;;289.60;150.60;;;;;;;;;;5045285;28;20020;-77
2021/12/19 13:45:51;;;;;;;266.67;139.27;;;;;;;;;;5046610;28;20418;-78
2021/12/19 13:48:19;;;;;;;274.15;144.23;;;;;;;;;;5045853;28;20025;-78
2021/12/19 13:50:48;;;;;;;272.33;147.23;;;;;;;;;;5053121;23;20063;-77
2021/12/19 13:53:15;;;;;;;275.70;143.40;;;;;;;;;;5080147;28;20017;-77
2021/12/19 13:55:47;;;;;;;274.00;139.43;;;;;;;;;;5045874;28;20028;-78
2021/12/19 13:58:14;;;;;;;248.88;133.75;;;;;;;;;;5044871;28;20021;-77
2021/12/19 14:00:43;;;;;;;244.52;134.82;;;;;;;;;;5045131;28;20423;-77
2021/12/19 14:03:34;;;;;;;215.65;120.65;;;;;;;;;;5076011;28;20020;-77
2021/12/19 14:07:20;;;;;;;210.05;102.22;;;;;;;;;;5086375;22;20067;-77
2021/12/19 14:10:06;;;;;;;188.40;90.72;;;;;;;;;;5064420;22;20068;-78
2021/12/19 14:15:11;;;;;;;130.23;71.38;;;;;;;;;;5089567;22;20350;-78
2021/12/19 14:26:32;;;;;;;166.82;82.03;;;;;;;;;;5080689;22;20434;-76
2021/12/19 14:29:19;;;;;;;150.27;68.90;;;;;;;;;;5062662;22;20534;-77
2021/12/19 14:37:50;;;;;;;130.88;63.05;;;;;;;;;;5056516;28;20437;-77
2021/12/19 14:45:48;;;;;;;107.53;49.72;;;;;;;;;;5068820;22;20438;-77
2021/12/19 14:51:32;;;;;;;78.75;41.80;;;;;;;;;;5061841;22;20040;-76
2021/12/19 15:02:33;;;;;;;64.82;25.60;;;;;;;;;;5049129;28;20045;-77
2021/12/19 15:05:10;;;;;;;55.33;23.05;;;;;;;;;;5040046;22;20158;-77
2021/12/19 15:10:35;;;;;;;39.63;20.00;;;;;;;;;;5112923;22;20048;-82
2021/12/19 15:13:01;;;;;;;47.38;19.50;;;;;;;;;;5080743;28;20419;-83
2021/12/19 15:15:27;;;;;;;58.97;20.40;;;;;;;;;;5062310;28;20077;-81
2021/12/19 15:17:53;;;;;;;42.15;21.15;;;;;;;;;;5151333;22;20093;-83
2021/12/19 15:20:19;;;;;;;48.00;18.00;;;;;;;;;;5078781;28;20029;-82
2021/12/19 15:22:45;;;;;;;43.35;18.55;;;;;;;;;;5081907;28;20021;-83
2021/12/19 15:25:12;;;;;;;48.92;22.63;;;;;;;;;;5062190;28;20038;-83
2021/12/19 15:27:39;;;;;;;44.42;18.92;;;;;;;;;;5062027;28;20024;-83
2021/12/19 15:30:06;;;;;;;57.70;22.20;;;;;;;;;;5062211;28;20043;-83
2021/12/19 15:32:34;;;;;;;52.28;21.90;;;;;;;;;;5077869;22;20037;-83
2021/12/19 15:35:02;;;;;;;43.97;20.92;;;;;;;;;;5061936;28;20033;-83
2021/12/19 15:37:28;;;;;;;55.38;21.42;;;;;;;;;;5079883;28;20426;-82
2021/12/19 15:39:54;;;;;;;49.10;19.83;;;;;;;;;;5062105;28;20075;-83
2021/12/19 15:42:20;;;;;;;53.75;20.42;;;;;;;;;;5061733;28;20370;-82
2021/12/19 15:44:46;;;;;;;51.10;20.15;;;;;;;;;;5062520;28;20028;-82
2021/12/19 15:47:12;;;;;;;47.97;19.02;;;;;;;;;;5069721;22;20021;-79
2021/12/19 15:49:38;;;;;;;52.17;21.15;;;;;;;;;;5170253;22;20032;-83
2021/12/19 15:52:04;;;;;;;48.00;17.52;;;;;;;;;;5061965;28;20100;-83
2021/12/19 15:54:30;;;;;;;48.55;19.08;;;;;;;;;;5061484;28;20074;-83
2021/12/19 15:56:57;;;;;;;42.58;19.20;;;;;;;;;;5045728;28;20342;-83
2021/12/19 15:59:23;;;;;;;70.20;18.85;;;;;;;;;;5062597;28;20017;-83
2021/12/19 16:01:49;;;;;;;50.47;19.73;;;;;;;;;;5060772;28;20020;-82
2021/12/19 16:04:15;;;;;;;48.97;17.95;;;;;;;;;;5062394;28;20330;-82
2021/12/19 16:06:43;;;;;;;64.80;23.90;;;;;;;;;;5080797;28;20059;-83
2021/12/19 16:09:09;;;;;;;51.65;19.73;;;;;;;;;;5062261;28;20020;-81
2021/12/19 16:11:35;;;;;;;54.22;20.15;;;;;;;;;;5098408;22;20040;-83